CheckWX is a tool to help pilots better visualize weather data.  It is not intended as a substitute for an official pre-flight weather briefing.

19:05:40 UTC

KFLL TAF
Fort Lauderdale / Hollywood International Airport
Fort Lauderdale, Florida, USA
KFLL 221734Z 2218/2324 12010KT P6SM SCT030 BKN070 FM231300 13015KT P6SM SCT025 SCT060 FM232300 14010KT P6SM SCT025

Feb-22@
18:00 UTC

Feb-22 @ 18:00 UTC

Feb-23@
13:00 UTC

Feb-23 @ 13:00 UTC

KFLL 221734Z 2218/2324 12010KT P6SM SCT030 BKN070
Wind
  • 120° at 10 KTS
Cloud Levels
  • Scattered at 3,000' AGL
  • Broken at 7,000' AGL

Feb-23@
13:00 UTC

Feb-23 @ 13:00 UTC

Feb-23@
23:00 UTC

Feb-23 @ 23:00 UTC

FM231300 13015KT P6SM SCT025 SCT060

From

FromStandard forecast or significant change

Wind
  • 130° at 15 KTS
Cloud Levels
  • Scattered at 2,500' AGL
  • Scattered at 6,000' AGL

Feb-23@
23:00 UTC

Feb-23 @ 23:00 UTC

Feb-24@
00:00 UTC

Feb-24 @ 00:00 UTC

FM232300 14010KT P6SM SCT025

From

FromStandard forecast or significant change

Wind
  • 140° at 10 KTS
Cloud Levels
  • Scattered at 2,500' AGL